LFTH 210200Z AUTO 32003KT CAVOK 16/12 Q1017 TEMPO FEW030CB LFTH 210130Z AUTO 34003KT CAVOK 16/11 Q1017 TEMPO FEW030CB LFTH 210100Z AUTO 32004KT CAVOK 16/12 Q1018 TEMPO FEW030CB LFTH 210030Z AUTO 33004KT CAVOK 15/12 Q1017 TEMPO FEW030CB LFTH 210000Z AUTO 31004KT 290V350 CAVOK 14/11 Q1017 NOSIG LFTH 202330Z AUTO VRB02KT CAVOK 15/11 Q1017 NOSIG LFTH 202300Z AUTO VRB02KT CAVOK 15/11 Q1017 NOSIG LFTH 202230Z AUTO VRB02KT CAVOK 16/11 Q1017 NOSIG LFTH 202200Z AUTO 26003KT CAVOK 17/12 Q1017 NOSIG LFTH 202130Z AUTO 00000KT CAVOK 18/11 Q1017 NOSIG LFTH 202100Z AUTO VRB01KT CAVOK 19/11 Q1017 NOSIG LFTH 202030Z AUTO 33005KT CAVOK 19/11 Q1016 NOSIG LFTH 202000Z AUTO 28004KT CAVOK 21/11 Q1016 TEMPO 28015G25KT LFTH 201930Z AUTO 28004KT CAVOK 21/11 Q1016 TEMPO 28015G25KT LFTH 201900Z AUTO 26005KT 220V290 CAVOK 22/11 Q1015 BECMG 28015G25KT LFTH 201830Z AUTO 29004KT 270V340 CAVOK 22/11 Q1015 BECMG 28015G25KT LFTH 201800Z AUTO 29007KT 260V340 CAVOK 22/11 Q1015 BECMG 28015G25KT LFTH 201730Z AUTO 30009KT 260V320 CAVOK 23/11 Q1014 BECMG 28015G25KT LFTH 201700Z AUTO 27011KT CAVOK 24/12 Q1014 BECMG 28015G25KT LFTH 201630Z AUTO 30013KT 270V340 CAVOK 25/11 Q1013 BECMG 28015G25KT LFTH 201600Z AUTO 25015KT CAVOK 25/12 Q1013 BECMG 28015G25KT LFTH 201530Z AUTO 25016KT CAVOK 25/12 Q1013 BECMG 28015G25KT LFTH 201500Z AUTO 26016KT CAVOK 25/12 Q1013 BECMG 28015G25KT LFTH 201430Z AUTO 26016KT CAVOK 25/12 Q1013 BECMG 28015G25KT LFTH 201400Z AUTO 26016KT CAVOK 25/13 Q1013 BECMG 27010G20KT LFTH 201330Z AUTO 26017KT CAVOK 25/13 Q1013 BECMG 27010G20KT LFTH 201300Z AUTO 26017KT CAVOK 26/12 Q1013 BECMG 27010G20KT LFTH 201230Z AUTO 26016KT CAVOK 26/12 Q1013 BECMG 27010G20KT LFTH 201200Z AUTO 26016KT CAVOK 24/13 Q1013 BECMG 27010G20KT LFTH 201130Z AUTO 27017KT CAVOK 26/12 Q1014 BECMG 27010G20KT LFTH 201100Z AUTO 24018KT CAVOK 25/12 Q1013 BECMG 27010G20KT LFTH 201030Z AUTO 25015KT 220V280 CAVOK 25/13 Q1013 BECMG 27010G20KT LFTH 201000Z AUTO 25014KT 220V290 CAVOK 24/12 Q1013 NOSIG LFTH 200930Z AUTO 27012KT 230V290 CAVOK 25/13 Q1014 NOSIG LFTH 200900Z AUTO 25010KT CAVOK 23/12 Q1014 NOSIG LFTH 200830Z AUTO 28007KT 240V330 CAVOK 24/12 Q1014 NOSIG LFTH 200800Z AUTO 29007KT 260V320 CAVOK 23/12 Q1013 BECMG 28015G25KT LFTH 200730Z AUTO 27008KT 220V310 CAVOK 22/12 Q1013 BECMG 28015G25KT LFTH 200700Z AUTO 29004KT 220V330 CAVOK 22/12 Q1013 BECMG 28015G25KT LFTH 200630Z AUTO 26007KT 230V320 CAVOK 20/12 Q1013 BECMG 28015G25KT LFTH 200600Z AUTO 26003KT 220V320 CAVOK 19/12 Q1013 NOSIG LFTH 200530Z AUTO 30006KT CAVOK 19/11 Q1013 NOSIG LFTH 200500Z AUTO 32008KT 270V340 CAVOK 20/11 Q1013 NOSIG LFTH 200430Z AUTO 30008KT 260V010 CAVOK 20/11 Q1013 NOSIG LFTH 200400Z AUTO 27008KT 220V310 CAVOK 20/11 Q1013 NOSIG LFTH 200330Z AUTO 27009KT 240V300 CAVOK 19/11 Q1013 NOSIG LFTH 200300Z AUTO 26010KT CAVOK 19/12 Q1013 NOSIG LFTH 200230Z AUTO 27008KT 240V320 CAVOK 20/11 Q1013 NOSIG LFTH 200200Z AUTO 27011KT CAVOK 21/11 Q1013 NOSIG LFTH 200130Z AUTO 29012KT 260V320 CAVOK 20/11 Q1013 NOSIG LFTH 200100Z AUTO 29011KT 250V330 CAVOK 20/11 Q1013 TEMPO 28015G25KT LFTH 200030Z AUTO 27013KT 240V310 CAVOK 20/11 Q1014 TEMPO 28015G25KT LFTH 200000Z AUTO 27014G25KT 250V310 CAVOK 20/11 Q1014 NOSIG LFTH 192330Z AUTO 27014KT 240V300 CAVOK 20/11 Q1014 BECMG 28015G25KT LFTH 192300Z AUTO 26013KT CAVOK 20/11 Q1014 BECMG 28015G25KT LFTH 192230Z AUTO 26015KT CAVOK 20/11 Q1014 BECMG 28015G25KT LFTH 192200Z AUTO 27012KT 240V300 CAVOK 20/11 Q1014 BECMG 28015G25KT LFTH 192130Z AUTO 27011KT 240V300 CAVOK 20/11 Q1014 BECMG 28015G25KT LFTH 192100Z AUTO 26006KT 210V320 CAVOK 21/11 Q1014 BECMG 28015G25KT LFTH 192030Z AUTO 30010KT 260V330 CAVOK 21/11 Q1014 BECMG 28015G25KT LFTH 192000Z AUTO 28012KT 250V310 CAVOK 21/10 Q1014 BECMG 28015G25KT LFTH 191930Z AUTO 27012KT 240V300 CAVOK 21/10 Q1014 BECMG 28015G25KT LFTH 191900Z AUTO 27011KT CAVOK 21/10 Q1014 BECMG 28015G25KT LFTH 191830Z AUTO 27011KT 240V300 CAVOK 22/09 Q1013 BECMG 28015G25KT LFTH 191800Z AUTO 27011KT CAVOK 22/09 Q1013 BECMG 28015G25KT LFTH 191730Z AUTO 28013KT CAVOK 23/09 Q1013 BECMG 28015G25KT LFTH 191700Z AUTO 29013KT CAVOK 24/09 Q1012 BECMG 28015G25KT LFTH 191630Z AUTO 28013KT 230V310 CAVOK 24/09 Q1012 BECMG 28015G25KT LFTH 191600Z AUTO 28015KT 250V320 CAVOK 25/08 Q1012 BECMG 28015G25KT LFTH 191530Z AUTO 29015KT 240V320 CAVOK 25/07 Q1013 BECMG 28015G25KT LFTH 191500Z AUTO 29013KT 250V330 CAVOK 25/07 Q1012 BECMG 28015G25KT LFTH 191430Z AUTO 28014KT 250V320 CAVOK 25/07 Q1012 BECMG 28015G25KT

METAR Messwerte

Zurück zur Übersicht

Ort
m ü. NN
Zeit Temperatur Taupunkt Rel.
Luftfeuchte
Luftdruck:
Altimeter
NN
Station
Wind in Beaufort
(Knoten)
Sichtweite
(Meter)
Wolken
(Meter über Grund)
Wettererscheinung
Toulon
4
Di 21.09. 04:00161277 %1017
1017
1017
NW 2 (3)>= 10000Nicht signifikant 
Toulon
4
Di 21.09. 03:30161172 %1017
1017
1017
NNW 2 (3)>= 10000Nicht signifikant 
Toulon
4
Di 21.09. 03:00161277 %1018
1018
1018
NW 2 (4)>= 10000Nicht signifikant 
Toulon
4
Di 21.09. 02:30151282 %1017
1017
1017
NNW 2 (4)>= 10000Nicht signifikant 
Toulon
4
Di 21.09. 02:00141182 %1017
1017
1017
NW 2 (4)
WNW - N
>= 10000Nicht signifikant 
Toulon
4
Di 21.09. 01:30151177 %1017
1017
1017
Uml 1 (2)>= 10000Nicht signifikant 
Toulon
4
Di 21.09. 01:00151177 %1017
1017
1017
Uml 1 (2)>= 10000Nicht signifikant 
Toulon
4
Di 21.09. 00:30161172 %1017
1017
1017
Uml 1 (2)>= 10000Nicht signifikant 
Toulon
4
Di 21.09. 00:00171272 %1017
1017
1017
W 2 (3)>= 10000Nicht signifikant 
Toulon
4
Mo 20.09. 23:30181164 %1017
1017
1017
Windstill>= 10000Nicht signifikant 
Toulon
4
Mo 20.09. 23:00191160 %1017
1017
1017
Uml 1 (1)>= 10000Nicht signifikant 
Toulon
4
Mo 20.09. 22:30191160 %1016
1016
1016
NNW 2 (5)>= 10000Nicht signifikant 
Toulon
4
Mo 20.09. 22:00211153 %1016
1016
1016
W 2 (4)
Bald möglich:
W 4 (15) - 6 (25)
>= 10000Nicht signifikant 
Toulon
4
Mo 20.09. 21:30211153 %1016
1016
1016
W 2 (4)
Bald möglich:
W 4 (15) - 6 (25)
>= 10000Nicht signifikant 
Toulon
4
Mo 20.09. 21:00221150 %1015
1015
1015
W 2 (5)
SW - WNW
Bald Übergang zu:
W 4 (15) - 6 (25)
>= 10000Nicht signifikant 
Toulon
4
Mo 20.09. 20:30221150 %1015
1015
1015
WNW 2 (4)
W - NNW
Bald Übergang zu:
W 4 (15) - 6 (25)
>= 10000Nicht signifikant 
Toulon
4
Mo 20.09. 20:00221150 %1015
1015
1015
WNW 3 (7)
W - NNW
Bald Übergang zu:
W 4 (15) - 6 (25)
>= 10000Nicht signifikant 
Toulon
4
Mo 20.09. 19:30231147 %1014
1014
1014
WNW 3 (9)
W - NW
Bald Übergang zu:
W 4 (15) - 6 (25)
>= 10000Nicht signifikant 
Toulon
4
Mo 20.09. 19:00241247 %1014
1014
1014
W 4 (11)
Bald Übergang zu:
W 4 (15) - 6 (25)
>= 10000Nicht signifikant 
Toulon
4
Mo 20.09. 18:30251141 %1013
1013
1013
WNW 4 (13)
W - NNW
Bald Übergang zu:
W 4 (15) - 6 (25)
>= 10000Nicht signifikant 
Toulon
4
Mo 20.09. 18:00251244 %1013
1013
1013
WSW 4 (15)
Bald Übergang zu:
W 4 (15) - 6 (25)
>= 10000Nicht signifikant 
Toulon
4
Mo 20.09. 17:30251244 %1013
1013
1013
WSW 5 (16)
Bald Übergang zu:
W 4 (15) - 6 (25)
>= 10000Nicht signifikant 
Toulon
4
Mo 20.09. 17:00251244 %1013
1013
1013
W 5 (16)
Bald Übergang zu:
W 4 (15) - 6 (25)
>= 10000Nicht signifikant 
Toulon
4
Mo 20.09. 16:30251244 %1013
1013
1013
W 5 (16)
Bald Übergang zu:
W 4 (15) - 6 (25)
>= 10000Nicht signifikant 
Toulon
4
Mo 20.09. 16:00251347 %1013
1013
1013
W 5 (16)
Bald Übergang zu:
W 3 (10) - 5 (20)
>= 10000Nicht signifikant 
Toulon
4
Mo 20.09. 15:30251347 %1013
1013
1013
W 5 (17)
Bald Übergang zu:
W 3 (10) - 5 (20)
>= 10000Nicht signifikant 
Toulon
4
Mo 20.09. 15:00261242 %1013
1013
1013
W 5 (17)
Bald Übergang zu:
W 3 (10) - 5 (20)
>= 10000Nicht signifikant 
Toulon
4
Mo 20.09. 14:30261242 %1013
1013
1013
W 5 (16)
Bald Übergang zu:
W 3 (10) - 5 (20)
>= 10000Nicht signifikant 
Toulon
4
Mo 20.09. 14:00241350 %1013
1013
1013
W 5 (16)
Bald Übergang zu:
W 3 (10) - 5 (20)
>= 10000Nicht signifikant 
Toulon
4
Mo 20.09. 13:30261242 %1014
1014
1014
W 5 (17)
Bald Übergang zu:
W 3 (10) - 5 (20)
>= 10000Nicht signifikant 
Toulon
4
Mo 20.09. 13:00251244 %1013
1013
1013
WSW 5 (18)
Bald Übergang zu:
W 3 (10) - 5 (20)
>= 10000Nicht signifikant 
Toulon
4
Mo 20.09. 12:30251347 %1013
1013
1013
WSW 4 (15)
SW - W
Bald Übergang zu:
W 3 (10) - 5 (20)
>= 10000Nicht signifikant 
Toulon
4
Mo 20.09. 12:00241247 %1013
1013
1013
WSW 4 (14)
SW - WNW
>= 10000Nicht signifikant 
Toulon
4
Mo 20.09. 11:30251347 %1014
1014
1014
W 4 (12)
SW - WNW
>= 10000Nicht signifikant 
Toulon
4
Mo 20.09. 11:00231250 %1014
1014
1014
WSW 3 (10)>= 10000Nicht signifikant 
Toulon
4
Mo 20.09. 10:30241247 %1014
1014
1014
W 3 (7)
WSW - NNW
>= 10000Nicht signifikant 
Toulon
4
Mo 20.09. 10:00231250 %1013
1013
1013
WNW 3 (7)
W - NW
Bald Übergang zu:
W 4 (15) - 6 (25)
>= 10000Nicht signifikant 
Toulon
4
Mo 20.09. 09:30221253 %1013
1013
1013
W 3 (8)
SW - NW
Bald Übergang zu:
W 4 (15) - 6 (25)
>= 10000Nicht signifikant 
Toulon
4
Mo 20.09. 09:00221253 %1013
1013
1013
WNW 2 (4)
SW - NNW
Bald Übergang zu:
W 4 (15) - 6 (25)
>= 10000Nicht signifikant 
Toulon
4
Mo 20.09. 08:30201260 %1013
1013
1013
W 3 (7)
SW - NW
Bald Übergang zu:
W 4 (15) - 6 (25)
>= 10000Nicht signifikant 
Toulon
4
Mo 20.09. 08:00191264 %1013
1013
1013
W 2 (3)
SW - NW
>= 10000Nicht signifikant 
Toulon
4
Mo 20.09. 07:30191160 %1013
1013
1013
WNW 2 (6)>= 10000Nicht signifikant 
Toulon
4
Mo 20.09. 07:00201156 %1013
1013
1013
NW 3 (8)
W - NNW
>= 10000Nicht signifikant 
Toulon
4
Mo 20.09. 06:30201156 %1013
1013
1013
WNW 3 (8)
W - N
>= 10000Nicht signifikant 
Toulon
4
Mo 20.09. 06:00201156 %1013
1013
1013
W 3 (8)
SW - NW
>= 10000Nicht signifikant 
Toulon
4
Mo 20.09. 05:30191160 %1013
1013
1013
W 3 (9)
WSW - WNW
>= 10000Nicht signifikant 
Toulon
4
Mo 20.09. 05:00191264 %1013
1013
1013
W 3 (10)>= 10000Nicht signifikant 
Toulon
4
Mo 20.09. 04:30201156 %1013
1013
1013
W 3 (8)
WSW - NW
>= 10000Nicht signifikant 
Toulon
4
Mo 20.09. 04:00211153 %1013
1013
1013
W 4 (11)>= 10000Nicht signifikant 
Toulon
4
Mo 20.09. 03:30201156 %1013
1013
1013
WNW 4 (12)
W - NW
>= 10000Nicht signifikant 
Toulon
4
Mo 20.09. 03:00201156 %1013
1013
1013
WNW 4 (11)
WSW - NNW
Bald möglich:
W 4 (15) - 6 (25)
>= 10000Nicht signifikant 
Toulon
4
Mo 20.09. 02:30201156 %1014
1014
1014
W 4 (13)
WSW - NW
Bald möglich:
W 4 (15) - 6 (25)
>= 10000Nicht signifikant 
Toulon
4
Mo 20.09. 02:00201156 %1014
1014
1014
W 4 (14) - 6 (25)
WSW - NW
>= 10000Nicht signifikant 
Toulon
4
Mo 20.09. 01:30201156 %1014
1014
1014
W 4 (14)
WSW - WNW
Bald Übergang zu:
W 4 (15) - 6 (25)
>= 10000Nicht signifikant 
Toulon
4
Mo 20.09. 01:00201156 %1014
1014
1014
W 4 (13)
Bald Übergang zu:
W 4 (15) - 6 (25)
>= 10000Nicht signifikant 
Toulon
4
Mo 20.09. 00:30201156 %1014
1014
1014
W 4 (15)
Bald Übergang zu:
W 4 (15) - 6 (25)
>= 10000Nicht signifikant 
Toulon
4
Mo 20.09. 00:00201156 %1014
1014
1014
W 4 (12)
WSW - WNW
Bald Übergang zu:
W 4 (15) - 6 (25)
>= 10000Nicht signifikant 
Toulon
4
So 19.09. 23:30201156 %1014
1014
1014
W 4 (11)
WSW - WNW
Bald Übergang zu:
W 4 (15) - 6 (25)
>= 10000Nicht signifikant 
Toulon
4
So 19.09. 23:00211153 %1014
1014
1014
W 2 (6)
SSW - NW
Bald Übergang zu:
W 4 (15) - 6 (25)
>= 10000Nicht signifikant 
Toulon
4
So 19.09. 22:30211153 %1014
1014
1014
WNW 3 (10)
W - NNW
Bald Übergang zu:
W 4 (15) - 6 (25)
>= 10000Nicht signifikant 
Toulon
4
So 19.09. 22:00211049 %1014
1014
1014
W 4 (12)
WSW - NW
Bald Übergang zu:
W 4 (15) - 6 (25)
>= 10000Nicht signifikant 
Toulon
4
So 19.09. 21:30211049 %1014
1014
1014
W 4 (12)
WSW - WNW
Bald Übergang zu:
W 4 (15) - 6 (25)
>= 10000Nicht signifikant 
Toulon
4
So 19.09. 21:00211049 %1014
1014
1014
W 4 (11)
Bald Übergang zu:
W 4 (15) - 6 (25)
>= 10000Nicht signifikant 
Toulon
4
So 19.09. 20:3022943 %1013
1013
1013
W 4 (11)
WSW - WNW
Bald Übergang zu:
W 4 (15) - 6 (25)
>= 10000Nicht signifikant 
Toulon
4
So 19.09. 20:0022943 %1013
1013
1013
W 4 (11)
Bald Übergang zu:
W 4 (15) - 6 (25)
>= 10000Nicht signifikant 
Toulon
4
So 19.09. 19:3023941 %1013
1013
1013
W 4 (13)
Bald Übergang zu:
W 4 (15) - 6 (25)
>= 10000Nicht signifikant 
Toulon
4
So 19.09. 19:0024938 %1012
1012
1012
WNW 4 (13)
Bald Übergang zu:
W 4 (15) - 6 (25)
>= 10000Nicht signifikant 
Toulon
4
So 19.09. 18:3024938 %1012
1012
1012
W 4 (13)
SW - NW
Bald Übergang zu:
W 4 (15) - 6 (25)
>= 10000Nicht signifikant 
Toulon
4
So 19.09. 18:0025834 %1012
1012
1012
W 4 (15)
WSW - NW
Bald Übergang zu:
W 4 (15) - 6 (25)
>= 10000Nicht signifikant 
Toulon
4
So 19.09. 17:3025732 %1013
1013
1013
WNW 4 (15)
WSW - NW
Bald Übergang zu:
W 4 (15) - 6 (25)
>= 10000Nicht signifikant 
Toulon
4
So 19.09. 17:0025732 %1012
1012
1012
WNW 4 (13)
WSW - NNW
Bald Übergang zu:
W 4 (15) - 6 (25)
>= 10000Nicht signifikant 
Toulon
4
So 19.09. 16:3025732 %1012
1012
1012
W 4 (14)
WSW - NW
Bald Übergang zu:
W 4 (15) - 6 (25)
>= 10000Nicht signifikant 

Altimeter: Einstellung am Altimeter (Höhenmesser), die Höhe 0 muss auf diesen Luftdruckwert zeigen, damit das Gerät die Stationshöhe richtig anzeigt.

NN: Luftdruck reduziert auf "Normal Null", auf Meereshöhe, dieser von der Temperatur abhängige Wert wird bisweilen unkorrekt einfach als "Luftdruck" bezeichnet. Eigentlich nur eine fiktive Größe, die es erlaubt, Stationen auf unterschiedlichen Höhen miteinander zu vergleichen.

Station: Realer Luftdruck an der Station.